sensor_id;sensor_type;location;lat;lon;timestamp;P1;durP1;ratioP1;P2;durP2;ratioP2
36787;SDS011;22738;45.560;9.434;2022-08-19T00:00:34;6.75;;;3.03;;
36787;SDS011;22738;45.560;9.434;2022-08-19T00:07:19;5.05;;;3.20;;
36787;SDS011;22738;45.560;9.434;2022-08-19T00:14:00;6.65;;;2.97;;
36787;SDS011;22738;45.560;9.434;2022-08-19T00:20:41;5.50;;;2.88;;
36787;SDS011;22738;45.560;9.434;2022-08-19T00:27:22;5.15;;;3.38;;
36787;SDS011;22738;45.560;9.434;2022-08-19T00:34:04;7.22;;;3.20;;
36787;SDS011;22738;45.560;9.434;2022-08-19T00:40:45;5.50;;;3.30;;
36787;SDS011;22738;45.560;9.434;2022-08-19T00:47:27;3.85;;;2.70;;
36787;SDS011;22738;45.560;9.434;2022-08-19T00:54:08;7.70;;;3.33;;
36787;SDS011;22738;45.560;9.434;2022-08-19T01:00:49;4.82;;;3.40;;
36787;SDS011;22738;45.560;9.434;2022-08-19T01:07:30;4.75;;;2.72;;
36787;SDS011;22738;45.560;9.434;2022-08-19T01:14:12;7.35;;;3.40;;
36787;SDS011;22738;45.560;9.434;2022-08-19T01:20:54;7.85;;;3.25;;
36787;SDS011;22738;45.560;9.434;2022-08-19T01:27:39;6.78;;;3.05;;
36787;SDS011;22738;45.560;9.434;2022-08-19T01:34:24;7.53;;;3.47;;
36787;SDS011;22738;45.560;9.434;2022-08-19T01:41:05;4.95;;;2.80;;
36787;SDS011;22738;45.560;9.434;2022-08-19T01:47:46;6.03;;;3.03;;
36787;SDS011;22738;45.560;9.434;2022-08-19T01:54:28;5.07;;;3.00;;
36787;SDS011;22738;45.560;9.434;2022-08-19T02:01:09;3.95;;;2.88;;
36787;SDS011;22738;45.560;9.434;2022-08-19T02:07:52;6.00;;;3.25;;
36787;SDS011;22738;45.560;9.434;2022-08-19T02:14:34;8.32;;;3.13;;
36787;SDS011;22738;45.560;9.434;2022-08-19T02:21:17;7.10;;;3.03;;
36787;SDS011;22738;45.560;9.434;2022-08-19T02:27:59;5.60;;;2.90;;
36787;SDS011;22738;45.560;9.434;2022-08-19T02:34:40;10.95;;;3.85;;
36787;SDS011;22738;45.560;9.434;2022-08-19T02:41:26;8.95;;;3.85;;
36787;SDS011;22738;45.560;9.434;2022-08-19T02:48:11;4.15;;;2.78;;
36787;SDS011;22738;45.560;9.434;2022-08-19T02:54:52;6.78;;;3.55;;
36787;SDS011;22738;45.560;9.434;2022-08-19T03:01:34;5.90;;;3.10;;
36787;SDS011;22738;45.560;9.434;2022-08-19T03:08:16;5.97;;;3.97;;
36787;SDS011;22738;45.560;9.434;2022-08-19T03:14:57;4.60;;;2.90;;
36787;SDS011;22738;45.560;9.434;2022-08-19T03:21:39;5.05;;;2.95;;
36787;SDS011;22738;45.560;9.434;2022-08-19T03:28:20;8.00;;;3.67;;
36787;SDS011;22738;45.560;9.434;2022-08-19T03:35:02;5.60;;;3.78;;
36787;SDS011;22738;45.560;9.434;2022-08-19T03:41:43;6.63;;;3.65;;
36787;SDS011;22738;45.560;9.434;2022-08-19T03:48:26;6.65;;;3.58;;
36787;SDS011;22738;45.560;9.434;2022-08-19T03:55:07;7.80;;;3.58;;
36787;SDS011;22738;45.560;9.434;2022-08-19T04:01:48;6.50;;;4.35;;
36787;SDS011;22738;45.560;9.434;2022-08-19T04:08:29;8.15;;;4.18;;
36787;SDS011;22738;45.560;9.434;2022-08-19T04:15:12;6.78;;;4.78;;
36787;SDS011;22738;45.560;9.434;2022-08-19T04:21:53;6.97;;;5.50;;
36787;SDS011;22738;45.560;9.434;2022-08-19T04:35:17;10.20;;;5.70;;
36787;SDS011;22738;45.560;9.434;2022-08-19T04:41:58;11.32;;;6.20;;
36787;SDS011;22738;45.560;9.434;2022-08-19T04:48:59;12.73;;;7.07;;
36787;SDS011;22738;45.560;9.434;2022-08-19T04:55:41;12.70;;;8.68;;
36787;SDS011;22738;45.560;9.434;2022-08-19T05:02:22;8.07;;;5.05;;
36787;SDS011;22738;45.560;9.434;2022-08-19T05:09:05;10.77;;;4.97;;
36787;SDS011;22738;45.560;9.434;2022-08-19T05:15:54;8.50;;;4.90;;
36787;SDS011;22738;45.560;9.434;2022-08-19T05:22:38;8.40;;;4.90;;
36787;SDS011;22738;45.560;9.434;2022-08-19T05:29:20;9.10;;;4.43;;
36787;SDS011;22738;45.560;9.434;2022-08-19T05:36:02;6.78;;;3.85;;
36787;SDS011;22738;45.560;9.434;2022-08-19T05:42:43;7.28;;;4.30;;
36787;SDS011;22738;45.560;9.434;2022-08-19T05:49:25;10.90;;;4.45;;
36787;SDS011;22738;45.560;9.434;2022-08-19T05:56:10;10.95;;;5.68;;
36787;SDS011;22738;45.560;9.434;2022-08-19T06:02:56;9.38;;;6.30;;
36787;SDS011;22738;45.560;9.434;2022-08-19T06:09:40;10.02;;;6.82;;
36787;SDS011;22738;45.560;9.434;2022-08-19T06:16:22;10.45;;;7.88;;
36787;SDS011;22738;45.560;9.434;2022-08-19T06:23:03;12.07;;;8.98;;
36787;SDS011;22738;45.560;9.434;2022-08-19T06:29:46;13.93;;;7.78;;
36787;SDS011;22738;45.560;9.434;2022-08-19T06:36:28;12.82;;;10.00;;
36787;SDS011;22738;45.560;9.434;2022-08-19T06:43:14;17.83;;;10.30;;
36787;SDS011;22738;45.560;9.434;2022-08-19T06:49:56;19.83;;;12.45;;
36787;SDS011;22738;45.560;9.434;2022-08-19T06:56:42;18.27;;;11.68;;
36787;SDS011;22738;45.560;9.434;2022-08-19T07:03:24;18.13;;;10.50;;
36787;SDS011;22738;45.560;9.434;2022-08-19T07:10:05;16.15;;;10.00;;
36787;SDS011;22738;45.560;9.434;2022-08-19T07:16:48;15.77;;;8.07;;
36787;SDS011;22738;45.560;9.434;2022-08-19T07:23:32;14.60;;;9.30;;
36787;SDS011;22738;45.560;9.434;2022-08-19T07:30:13;11.40;;;7.32;;
36787;SDS011;22738;45.560;9.434;2022-08-19T07:36:54;13.32;;;6.93;;
36787;SDS011;22738;45.560;9.434;2022-08-19T07:43:36;9.43;;;6.50;;
36787;SDS011;22738;45.560;9.434;2022-08-19T07:50:18;8.60;;;5.28;;
36787;SDS011;22738;45.560;9.434;2022-08-19T07:57:01;13.30;;;7.55;;
36787;SDS011;22738;45.560;9.434;2022-08-19T08:03:43;8.93;;;5.90;;
36787;SDS011;22738;45.560;9.434;2022-08-19T08:10:43;17.27;;;8.95;;
36787;SDS011;22738;45.560;9.434;2022-08-19T08:17:28;14.07;;;8.77;;
36787;SDS011;22738;45.560;9.434;2022-08-19T08:24:10;13.70;;;7.13;;
36787;SDS011;22738;45.560;9.434;2022-08-19T08:30:52;9.70;;;5.00;;
36787;SDS011;22738;45.560;9.434;2022-08-19T08:37:35;6.70;;;3.80;;
36787;SDS011;22738;45.560;9.434;2022-08-19T08:44:17;4.90;;;3.22;;
36787;SDS011;22738;45.560;9.434;2022-08-19T08:51:05;9.30;;;5.20;;
36787;SDS011;22738;45.560;9.434;2022-08-19T08:58:01;13.82;;;5.32;;
36787;SDS011;22738;45.560;9.434;2022-08-19T09:04:46;11.65;;;6.05;;
36787;SDS011;22738;45.560;9.434;2022-08-19T09:11:43;11.38;;;6.75;;
36787;SDS011;22738;45.560;9.434;2022-08-19T09:18:45;11.70;;;7.05;;
36787;SDS011;22738;45.560;9.434;2022-08-19T09:25:29;9.32;;;5.03;;
36787;SDS011;22738;45.560;9.434;2022-08-19T09:32:13;9.20;;;5.28;;
36787;SDS011;22738;45.560;9.434;2022-08-19T09:38:54;7.07;;;5.30;;
36787;SDS011;22738;45.560;9.434;2022-08-19T09:45:36;9.73;;;5.35;;
36787;SDS011;22738;45.560;9.434;2022-08-19T09:52:18;9.65;;;5.82;;
36787;SDS011;22738;45.560;9.434;2022-08-19T09:59:03;12.70;;;5.23;;
36787;SDS011;22738;45.560;9.434;2022-08-19T10:05:44;9.52;;;5.78;;
36787;SDS011;22738;45.560;9.434;2022-08-19T10:12:28;5.22;;;3.83;;
36787;SDS011;22738;45.560;9.434;2022-08-19T10:19:09;8.10;;;3.60;;
36787;SDS011;22738;45.560;9.434;2022-08-19T10:25:50;7.00;;;2.80;;
36787;SDS011;22738;45.560;9.434;2022-08-19T10:32:34;5.18;;;3.42;;
36787;SDS011;22738;45.560;9.434;2022-08-19T10:39:15;5.32;;;2.75;;
36787;SDS011;22738;45.560;9.434;2022-08-19T10:45:56;5.57;;;2.45;;
36787;SDS011;22738;45.560;9.434;2022-08-19T10:52:41;7.72;;;1.90;;
36787;SDS011;22738;45.560;9.434;2022-08-19T10:59:29;4.47;;;1.30;;
36787;SDS011;22738;45.560;9.434;2022-08-19T11:06:11;4.13;;;1.20;;
36787;SDS011;22738;45.560;9.434;2022-08-19T11:12:52;4.03;;;1.70;;
36787;SDS011;22738;45.560;9.434;2022-08-19T11:19:35;4.67;;;1.30;;
36787;SDS011;22738;45.560;9.434;2022-08-19T11:26:17;4.78;;;1.60;;
36787;SDS011;22738;45.560;9.434;2022-08-19T11:33:00;7.88;;;1.63;;
36787;SDS011;22738;45.560;9.434;2022-08-19T11:39:41;4.45;;;1.30;;
36787;SDS011;22738;45.560;9.434;2022-08-19T11:46:23;5.45;;;1.40;;
36787;SDS011;22738;45.560;9.434;2022-08-19T11:53:06;2.85;;;1.58;;
36787;SDS011;22738;45.560;9.434;2022-08-19T11:59:48;3.40;;;1.73;;
36787;SDS011;22738;45.560;9.434;2022-08-19T12:06:32;4.78;;;1.42;;
36787;SDS011;22738;45.560;9.434;2022-08-19T12:13:14;2.30;;;1.20;;
36787;SDS011;22738;45.560;9.434;2022-08-19T12:19:59;4.18;;;1.17;;
36787;SDS011;22738;45.560;9.434;2022-08-19T12:26:40;2.38;;;1.08;;
36787;SDS011;22738;45.560;9.434;2022-08-19T12:33:23;4.40;;;1.40;;
36787;SDS011;22738;45.560;9.434;2022-08-19T12:40:08;4.20;;;1.25;;
36787;SDS011;22738;45.560;9.434;2022-08-19T12:46:50;4.70;;;1.35;;
36787;SDS011;22738;45.560;9.434;2022-08-19T12:53:31;2.00;;;1.00;;
36787;SDS011;22738;45.560;9.434;2022-08-19T13:00:15;3.80;;;1.60;;
36787;SDS011;22738;45.560;9.434;2022-08-19T13:07:01;4.80;;;1.50;;
36787;SDS011;22738;45.560;9.434;2022-08-19T13:13:44;3.43;;;1.47;;
36787;SDS011;22738;45.560;9.434;2022-08-19T13:20:26;3.58;;;1.23;;
36787;SDS011;22738;45.560;9.434;2022-08-19T13:27:08;3.20;;;1.40;;
36787;SDS011;22738;45.560;9.434;2022-08-19T13:33:49;4.78;;;1.40;;
36787;SDS011;22738;45.560;9.434;2022-08-19T13:40:31;3.35;;;1.30;;
36787;SDS011;22738;45.560;9.434;2022-08-19T13:47:14;3.88;;;1.50;;
36787;SDS011;22738;45.560;9.434;2022-08-19T13:53:55;3.40;;;1.42;;
36787;SDS011;22738;45.560;9.434;2022-08-19T14:00:38;3.80;;;1.27;;
36787;SDS011;22738;45.560;9.434;2022-08-19T14:07:23;4.78;;;1.50;;
36787;SDS011;22738;45.560;9.434;2022-08-19T14:14:04;4.75;;;1.25;;
36787;SDS011;22738;45.560;9.434;2022-08-19T14:20:46;2.33;;;1.17;;
36787;SDS011;22738;45.560;9.434;2022-08-19T14:27:27;3.75;;;1.08;;
36787;SDS011;22738;45.560;9.434;2022-08-19T14:34:09;1.73;;;1.00;;
36787;SDS011;22738;45.560;9.434;2022-08-19T14:40:50;3.85;;;1.45;;
36787;SDS011;22738;45.560;9.434;2022-08-19T14:47:32;2.95;;;1.05;;
36787;SDS011;22738;45.560;9.434;2022-08-19T14:54:13;4.88;;;1.33;;
36787;SDS011;22738;45.560;9.434;2022-08-19T15:00:56;1.75;;;0.77;;
36787;SDS011;22738;45.560;9.434;2022-08-19T15:07:39;1.95;;;0.93;;
36787;SDS011;22738;45.560;9.434;2022-08-19T15:14:21;1.23;;;0.60;;
36787;SDS011;22738;45.560;9.434;2022-08-19T15:21:03;1.67;;;0.60;;
36787;SDS011;22738;45.560;9.434;2022-08-19T15:34:28;1.27;;;0.60;;
36787;SDS011;22738;45.560;9.434;2022-08-19T15:41:18;1.33;;;0.50;;
36787;SDS011;22738;45.560;9.434;2022-08-19T15:48:04;0.95;;;0.52;;
36787;SDS011;22738;45.560;9.434;2022-08-19T16:01:28;0.75;;;0.32;;
36787;SDS011;22738;45.560;9.434;2022-08-19T16:08:09;1.70;;;0.55;;
36787;SDS011;22738;45.560;9.434;2022-08-19T16:14:51;1.35;;;0.60;;
36787;SDS011;22738;45.560;9.434;2022-08-19T16:21:33;0.68;;;0.40;;
36787;SDS011;22738;45.560;9.434;2022-08-19T16:28:15;0.93;;;0.40;;
36787;SDS011;22738;45.560;9.434;2022-08-19T16:34:56;1.08;;;0.45;;
36787;SDS011;22738;45.560;9.434;2022-08-19T16:41:37;0.45;;;0.40;;
36787;SDS011;22738;45.560;9.434;2022-08-19T16:48:20;0.63;;;0.50;;
36787;SDS011;22738;45.560;9.434;2022-08-19T16:55:04;1.20;;;0.70;;
36787;SDS011;22738;45.560;9.434;2022-08-19T17:01:45;1.35;;;0.40;;
36787;SDS011;22738;45.560;9.434;2022-08-19T17:08:26;0.90;;;0.40;;
36787;SDS011;22738;45.560;9.434;2022-08-19T17:15:11;1.63;;;1.20;;
36787;SDS011;22738;45.560;9.434;2022-08-19T17:21:52;5.00;;;1.15;;
36787;SDS011;22738;45.560;9.434;2022-08-19T17:28:35;3.65;;;1.13;;
36787;SDS011;22738;45.560;9.434;2022-08-19T17:35:16;1.98;;;1.10;;
36787;SDS011;22738;45.560;9.434;2022-08-19T17:42:00;4.70;;;1.85;;
36787;SDS011;22738;45.560;9.434;2022-08-19T17:48:41;2.90;;;1.42;;
36787;SDS011;22738;45.560;9.434;2022-08-19T17:55:23;3.50;;;1.40;;
36787;SDS011;22738;45.560;9.434;2022-08-19T18:02:06;1.35;;;1.13;;
36787;SDS011;22738;45.560;9.434;2022-08-19T18:08:49;1.73;;;1.30;;
36787;SDS011;22738;45.560;9.434;2022-08-19T18:15:30;3.30;;;1.80;;
36787;SDS011;22738;45.560;9.434;2022-08-19T18:22:16;3.47;;;1.88;;
36787;SDS011;22738;45.560;9.434;2022-08-19T18:29:06;3.67;;;1.90;;
36787;SDS011;22738;45.560;9.434;2022-08-19T18:35:48;5.13;;;2.00;;
36787;SDS011;22738;45.560;9.434;2022-08-19T18:42:33;3.80;;;1.85;;
36787;SDS011;22738;45.560;9.434;2022-08-19T18:49:32;4.15;;;1.80;;
36787;SDS011;22738;45.560;9.434;2022-08-19T18:56:14;5.68;;;1.98;;
36787;SDS011;22738;45.560;9.434;2022-08-19T19:02:57;4.35;;;1.75;;
36787;SDS011;22738;45.560;9.434;2022-08-19T19:09:38;2.80;;;2.30;;
36787;SDS011;22738;45.560;9.434;2022-08-19T19:16:20;3.03;;;2.10;;
36787;SDS011;22738;45.560;9.434;2022-08-19T19:23:01;3.72;;;3.05;;
36787;SDS011;22738;45.560;9.434;2022-08-19T19:29:44;8.82;;;3.30;;
36787;SDS011;22738;45.560;9.434;2022-08-19T19:36:25;8.53;;;3.97;;
36787;SDS011;22738;45.560;9.434;2022-08-19T19:43:06;5.22;;;4.15;;
36787;SDS011;22738;45.560;9.434;2022-08-19T19:49:47;7.15;;;4.82;;
36787;SDS011;22738;45.560;9.434;2022-08-19T19:56:32;11.98;;;4.55;;
36787;SDS011;22738;45.560;9.434;2022-08-19T20:03:14;8.82;;;4.80;;
36787;SDS011;22738;45.560;9.434;2022-08-19T20:09:59;8.10;;;4.63;;
36787;SDS011;22738;45.560;9.434;2022-08-19T20:16:43;13.70;;;5.05;;
36787;SDS011;22738;45.560;9.434;2022-08-19T20:23:25;6.45;;;3.90;;
36787;SDS011;22738;45.560;9.434;2022-08-19T20:30:08;10.85;;;5.53;;
36787;SDS011;22738;45.560;9.434;2022-08-19T20:36:54;8.80;;;4.70;;
36787;SDS011;22738;45.560;9.434;2022-08-19T20:43:36;8.80;;;6.10;;
36787;SDS011;22738;45.560;9.434;2022-08-19T20:50:17;14.13;;;5.15;;
36787;SDS011;22738;45.560;9.434;2022-08-19T20:56:59;8.70;;;4.95;;
36787;SDS011;22738;45.560;9.434;2022-08-19T21:10:24;7.72;;;5.57;;
36787;SDS011;22738;45.560;9.434;2022-08-19T21:17:05;11.25;;;5.80;;
36787;SDS011;22738;45.560;9.434;2022-08-19T21:23:47;9.07;;;5.05;;
36787;SDS011;22738;45.560;9.434;2022-08-19T21:30:28;9.80;;;5.35;;
36787;SDS011;22738;45.560;9.434;2022-08-19T21:37:09;7.10;;;4.50;;
36787;SDS011;22738;45.560;9.434;2022-08-19T21:43:50;10.20;;;5.78;;
36787;SDS011;22738;45.560;9.434;2022-08-19T21:50:31;12.13;;;7.97;;
36787;SDS011;22738;45.560;9.434;2022-08-19T21:57:12;10.43;;;7.13;;
36787;SDS011;22738;45.560;9.434;2022-08-19T22:03:53;10.23;;;6.25;;
36787;SDS011;22738;45.560;9.434;2022-08-19T22:10:35;13.30;;;7.53;;
36787;SDS011;22738;45.560;9.434;2022-08-19T22:17:17;11.38;;;7.07;;
36787;SDS011;22738;45.560;9.434;2022-08-19T22:23:58;7.20;;;5.82;;
36787;SDS011;22738;45.560;9.434;2022-08-19T22:30:40;13.55;;;6.28;;
36787;SDS011;22738;45.560;9.434;2022-08-19T22:37:23;8.88;;;5.82;;
36787;SDS011;22738;45.560;9.434;2022-08-19T22:44:05;7.10;;;4.63;;
36787;SDS011;22738;45.560;9.434;2022-08-19T22:50:47;4.93;;;4.35;;
36787;SDS011;22738;45.560;9.434;2022-08-19T22:57:47;9.23;;;5.07;;
36787;SDS011;22738;45.560;9.434;2022-08-19T23:04:28;6.78;;;4.72;;
36787;SDS011;22738;45.560;9.434;2022-08-19T23:11:10;13.88;;;5.43;;
36787;SDS011;22738;45.560;9.434;2022-08-19T23:17:52;9.68;;;6.10;;
36787;SDS011;22738;45.560;9.434;2022-08-19T23:24:34;10.70;;;5.30;;
36787;SDS011;22738;45.560;9.434;2022-08-19T23:31:15;9.35;;;4.35;;
36787;SDS011;22738;45.560;9.434;2022-08-19T23:37:56;6.30;;;4.30;;
36787;SDS011;22738;45.560;9.434;2022-08-19T23:44:40;5.28;;;4.18;;
36787;SDS011;22738;45.560;9.434;2022-08-19T23:51:22;7.32;;;4.45;;
36787;SDS011;22738;45.560;9.434;2022-08-19T23:58:05;5.22;;;3.53;;
